sensor_id;sensor_type;location;lat;lon;timestamp;P1;durP1;ratioP1;P2;durP2;ratioP2
59416;SDS011;45222;52.458;20.914;2024-01-25T00:00:36;12.60;;;3.90;;
59416;SDS011;45222;52.458;20.914;2024-01-25T00:04:41;10.70;;;3.50;;
59416;SDS011;45222;52.458;20.914;2024-01-25T00:08:26;11.50;;;3.40;;
59416;SDS011;45222;52.458;20.914;2024-01-25T00:12:12;9.90;;;3.00;;
59416;SDS011;45222;52.458;20.914;2024-01-25T00:15:58;9.70;;;2.60;;
59416;SDS011;45222;52.458;20.914;2024-01-25T00:19:43;10.30;;;3.20;;
59416;SDS011;45222;52.458;20.914;2024-01-25T00:23:28;11.40;;;3.20;;
59416;SDS011;45222;52.458;20.914;2024-01-25T00:27:13;10.20;;;3.20;;
59416;SDS011;45222;52.458;20.914;2024-01-25T00:30:59;10.10;;;3.20;;
59416;SDS011;45222;52.458;20.914;2024-01-25T00:34:44;9.00;;;2.90;;
59416;SDS011;45222;52.458;20.914;2024-01-25T00:38:31;7.70;;;2.30;;
59416;SDS011;45222;52.458;20.914;2024-01-25T00:42:17;6.90;;;2.10;;
59416;SDS011;45222;52.458;20.914;2024-01-25T00:46:08;7.00;;;2.20;;
59416;SDS011;45222;52.458;20.914;2024-01-25T00:49:54;7.10;;;2.40;;
59416;SDS011;45222;52.458;20.914;2024-01-25T00:53:41;6.50;;;2.00;;
59416;SDS011;45222;52.458;20.914;2024-01-25T00:57:27;9.60;;;2.50;;
59416;SDS011;45222;52.458;20.914;2024-01-25T01:01:13;6.50;;;2.20;;
59416;SDS011;45222;52.458;20.914;2024-01-25T01:05:00;6.80;;;2.40;;
59416;SDS011;45222;52.458;20.914;2024-01-25T01:08:46;7.00;;;1.70;;
59416;SDS011;45222;52.458;20.914;2024-01-25T01:12:32;6.30;;;1.90;;
59416;SDS011;45222;52.458;20.914;2024-01-25T01:16:17;5.40;;;1.70;;
59416;SDS011;45222;52.458;20.914;2024-01-25T01:20:06;6.50;;;2.10;;
59416;SDS011;45222;52.458;20.914;2024-01-25T01:23:52;7.60;;;2.30;;
59416;SDS011;45222;52.458;20.914;2024-01-25T01:27:38;6.70;;;2.10;;
59416;SDS011;45222;52.458;20.914;2024-01-25T01:31:23;6.60;;;1.90;;
59416;SDS011;45222;52.458;20.914;2024-01-25T01:35:08;5.60;;;1.90;;
59416;SDS011;45222;52.458;20.914;2024-01-25T01:38:53;9.10;;;2.20;;
59416;SDS011;45222;52.458;20.914;2024-01-25T01:42:38;7.10;;;2.30;;
59416;SDS011;45222;52.458;20.914;2024-01-25T01:46:26;8.00;;;2.30;;
59416;SDS011;45222;52.458;20.914;2024-01-25T01:50:17;8.10;;;2.40;;
59416;SDS011;45222;52.458;20.914;2024-01-25T01:54:03;9.00;;;2.70;;
59416;SDS011;45222;52.458;20.914;2024-01-25T01:57:51;7.30;;;2.10;;
59416;SDS011;45222;52.458;20.914;2024-01-25T02:01:36;8.90;;;2.50;;
59416;SDS011;45222;52.458;20.914;2024-01-25T02:05:21;11.10;;;2.80;;
59416;SDS011;45222;52.458;20.914;2024-01-25T02:09:07;8.20;;;2.60;;
59416;SDS011;45222;52.458;20.914;2024-01-25T02:12:53;9.40;;;2.90;;
59416;SDS011;45222;52.458;20.914;2024-01-25T02:16:38;8.70;;;2.40;;
59416;SDS011;45222;52.458;20.914;2024-01-25T02:20:26;8.70;;;2.60;;
59416;SDS011;45222;52.458;20.914;2024-01-25T02:24:12;9.60;;;2.70;;
59416;SDS011;45222;52.458;20.914;2024-01-25T02:27:57;9.60;;;3.00;;
59416;SDS011;45222;52.458;20.914;2024-01-25T02:31:42;10.10;;;2.80;;
59416;SDS011;45222;52.458;20.914;2024-01-25T02:35:27;9.40;;;2.50;;
59416;SDS011;45222;52.458;20.914;2024-01-25T02:39:12;9.00;;;2.80;;
59416;SDS011;45222;52.458;20.914;2024-01-25T02:42:58;9.50;;;2.90;;
59416;SDS011;45222;52.458;20.914;2024-01-25T02:46:43;10.20;;;3.10;;
59416;SDS011;45222;52.458;20.914;2024-01-25T02:50:30;9.30;;;3.30;;
59416;SDS011;45222;52.458;20.914;2024-01-25T02:54:15;9.50;;;3.00;;
59416;SDS011;45222;52.458;20.914;2024-01-25T02:58:00;9.80;;;2.90;;
59416;SDS011;45222;52.458;20.914;2024-01-25T03:01:45;9.50;;;3.00;;
59416;SDS011;45222;52.458;20.914;2024-01-25T03:05:31;9.80;;;3.00;;
59416;SDS011;45222;52.458;20.914;2024-01-25T03:09:18;11.80;;;3.60;;
59416;SDS011;45222;52.458;20.914;2024-01-25T03:13:04;8.50;;;3.00;;
59416;SDS011;45222;52.458;20.914;2024-01-25T03:16:50;12.10;;;3.70;;
59416;SDS011;45222;52.458;20.914;2024-01-25T03:20:35;9.30;;;2.80;;
59416;SDS011;45222;52.458;20.914;2024-01-25T03:24:20;9.20;;;3.20;;
59416;SDS011;45222;52.458;20.914;2024-01-25T03:28:06;9.40;;;3.30;;
59416;SDS011;45222;52.458;20.914;2024-01-25T03:31:52;9.40;;;2.90;;
59416;SDS011;45222;52.458;20.914;2024-01-25T03:35:37;10.50;;;3.00;;
59416;SDS011;45222;52.458;20.914;2024-01-25T03:39:23;8.80;;;2.70;;
59416;SDS011;45222;52.458;20.914;2024-01-25T03:43:08;11.30;;;3.50;;
59416;SDS011;45222;52.458;20.914;2024-01-25T03:46:53;10.50;;;3.50;;
59416;SDS011;45222;52.458;20.914;2024-01-25T03:50:38;8.10;;;2.60;;
59416;SDS011;45222;52.458;20.914;2024-01-25T03:54:23;10.20;;;2.80;;
59416;SDS011;45222;52.458;20.914;2024-01-25T03:58:09;9.80;;;3.10;;
59416;SDS011;45222;52.458;20.914;2024-01-25T04:01:54;9.80;;;3.20;;
59416;SDS011;45222;52.458;20.914;2024-01-25T04:05:39;10.60;;;3.00;;
59416;SDS011;45222;52.458;20.914;2024-01-25T04:09:24;10.70;;;3.20;;
59416;SDS011;45222;52.458;20.914;2024-01-25T04:13:09;9.20;;;3.00;;
59416;SDS011;45222;52.458;20.914;2024-01-25T04:16:55;9.20;;;2.80;;
59416;SDS011;45222;52.458;20.914;2024-01-25T04:20:41;9.80;;;2.90;;
59416;SDS011;45222;52.458;20.914;2024-01-25T04:24:27;13.80;;;3.70;;
59416;SDS011;45222;52.458;20.914;2024-01-25T04:28:12;13.10;;;3.70;;
59416;SDS011;45222;52.458;20.914;2024-01-25T04:31:57;12.50;;;2.90;;
59416;SDS011;45222;52.458;20.914;2024-01-25T04:35:43;10.90;;;3.40;;
59416;SDS011;45222;52.458;20.914;2024-01-25T04:39:29;10.70;;;3.10;;
59416;SDS011;45222;52.458;20.914;2024-01-25T04:43:14;10.30;;;3.50;;
59416;SDS011;45222;52.458;20.914;2024-01-25T04:46:59;13.40;;;4.20;;
59416;SDS011;45222;52.458;20.914;2024-01-25T04:50:45;11.70;;;3.50;;
59416;SDS011;45222;52.458;20.914;2024-01-25T04:54:30;10.40;;;3.50;;
59416;SDS011;45222;52.458;20.914;2024-01-25T04:58:15;11.50;;;3.30;;
59416;SDS011;45222;52.458;20.914;2024-01-25T05:02:00;11.80;;;4.10;;
59416;SDS011;45222;52.458;20.914;2024-01-25T05:05:45;11.50;;;3.70;;
59416;SDS011;45222;52.458;20.914;2024-01-25T05:09:31;10.40;;;3.40;;
59416;SDS011;45222;52.458;20.914;2024-01-25T05:13:16;11.00;;;2.80;;
59416;SDS011;45222;52.458;20.914;2024-01-25T05:17:02;11.60;;;3.20;;
59416;SDS011;45222;52.458;20.914;2024-01-25T05:20:47;9.30;;;3.30;;
59416;SDS011;45222;52.458;20.914;2024-01-25T05:24:32;12.20;;;3.50;;
59416;SDS011;45222;52.458;20.914;2024-01-25T05:28:18;9.00;;;2.70;;
59416;SDS011;45222;52.458;20.914;2024-01-25T05:32:03;9.90;;;3.30;;
59416;SDS011;45222;52.458;20.914;2024-01-25T05:35:49;11.20;;;3.20;;
59416;SDS011;45222;52.458;20.914;2024-01-25T05:39:34;11.50;;;3.90;;
59416;SDS011;45222;52.458;20.914;2024-01-25T05:43:19;8.80;;;2.80;;
59416;SDS011;45222;52.458;20.914;2024-01-25T05:47:06;8.40;;;2.60;;
59416;SDS011;45222;52.458;20.914;2024-01-25T05:50:58;9.90;;;3.40;;
59416;SDS011;45222;52.458;20.914;2024-01-25T05:54:43;9.10;;;3.30;;
59416;SDS011;45222;52.458;20.914;2024-01-25T05:58:28;8.90;;;3.00;;
59416;SDS011;45222;52.458;20.914;2024-01-25T06:02:13;9.70;;;3.00;;
59416;SDS011;45222;52.458;20.914;2024-01-25T06:05:59;10.30;;;3.30;;
59416;SDS011;45222;52.458;20.914;2024-01-25T06:09:44;6.90;;;1.60;;
59416;SDS011;45222;52.458;20.914;2024-01-25T06:13:29;9.20;;;3.20;;
59416;SDS011;45222;52.458;20.914;2024-01-25T06:17:15;9.90;;;2.70;;
59416;SDS011;45222;52.458;20.914;2024-01-25T06:21:00;10.70;;;3.20;;
59416;SDS011;45222;52.458;20.914;2024-01-25T06:24:46;9.00;;;3.30;;
59416;SDS011;45222;52.458;20.914;2024-01-25T06:28:31;10.10;;;3.10;;
59416;SDS011;45222;52.458;20.914;2024-01-25T06:32:16;8.80;;;2.70;;
59416;SDS011;45222;52.458;20.914;2024-01-25T06:36:01;8.00;;;2.30;;
59416;SDS011;45222;52.458;20.914;2024-01-25T06:39:46;9.80;;;3.40;;
59416;SDS011;45222;52.458;20.914;2024-01-25T06:43:32;9.40;;;3.40;;
59416;SDS011;45222;52.458;20.914;2024-01-25T06:47:17;7.70;;;2.00;;
59416;SDS011;45222;52.458;20.914;2024-01-25T06:51:02;8.50;;;3.10;;
59416;SDS011;45222;52.458;20.914;2024-01-25T06:54:48;8.00;;;2.80;;
59416;SDS011;45222;52.458;20.914;2024-01-25T06:58:33;11.90;;;4.50;;
59416;SDS011;45222;52.458;20.914;2024-01-25T07:02:18;9.90;;;3.20;;
59416;SDS011;45222;52.458;20.914;2024-01-25T07:06:04;9.40;;;3.00;;
59416;SDS011;45222;52.458;20.914;2024-01-25T07:09:49;8.80;;;2.90;;
59416;SDS011;45222;52.458;20.914;2024-01-25T07:13:34;8.00;;;2.60;;
59416;SDS011;45222;52.458;20.914;2024-01-25T07:17:20;9.00;;;3.20;;
59416;SDS011;45222;52.458;20.914;2024-01-25T07:21:05;12.10;;;3.10;;
59416;SDS011;45222;52.458;20.914;2024-01-25T07:24:50;9.50;;;2.80;;
59416;SDS011;45222;52.458;20.914;2024-01-25T07:28:35;8.80;;;2.80;;
59416;SDS011;45222;52.458;20.914;2024-01-25T07:32:20;7.00;;;2.40;;
59416;SDS011;45222;52.458;20.914;2024-01-25T07:36:07;9.90;;;2.80;;
59416;SDS011;45222;52.458;20.914;2024-01-25T07:39:52;7.90;;;3.00;;
59416;SDS011;45222;52.458;20.914;2024-01-25T07:43:38;7.30;;;2.40;;
59416;SDS011;45222;52.458;20.914;2024-01-25T07:47:23;10.10;;;3.50;;
59416;SDS011;45222;52.458;20.914;2024-01-25T07:51:11;7.70;;;2.30;;
59416;SDS011;45222;52.458;20.914;2024-01-25T07:54:56;6.70;;;2.40;;
59416;SDS011;45222;52.458;20.914;2024-01-25T07:58:42;6.50;;;2.30;;
59416;SDS011;45222;52.458;20.914;2024-01-25T08:02:27;6.00;;;2.30;;
59416;SDS011;45222;52.458;20.914;2024-01-25T08:06:12;6.90;;;2.40;;
59416;SDS011;45222;52.458;20.914;2024-01-25T08:09:57;6.40;;;1.80;;
59416;SDS011;45222;52.458;20.914;2024-01-25T08:13:42;5.30;;;1.80;;
59416;SDS011;45222;52.458;20.914;2024-01-25T08:17:28;7.10;;;2.10;;
59416;SDS011;45222;52.458;20.914;2024-01-25T08:21:13;5.60;;;2.20;;
59416;SDS011;45222;52.458;20.914;2024-01-25T08:24:58;4.50;;;2.00;;
59416;SDS011;45222;52.458;20.914;2024-01-25T08:28:44;6.80;;;2.30;;
59416;SDS011;45222;52.458;20.914;2024-01-25T08:32:30;7.20;;;2.40;;
59416;SDS011;45222;52.458;20.914;2024-01-25T08:36:17;5.60;;;2.00;;
59416;SDS011;45222;52.458;20.914;2024-01-25T08:40:03;6.50;;;2.60;;
59416;SDS011;45222;52.458;20.914;2024-01-25T08:43:50;5.70;;;2.10;;
59416;SDS011;45222;52.458;20.914;2024-01-25T08:47:36;5.20;;;2.10;;
59416;SDS011;45222;52.458;20.914;2024-01-25T08:51:21;7.00;;;2.40;;
59416;SDS011;45222;52.458;20.914;2024-01-25T08:55:07;6.10;;;2.30;;
59416;SDS011;45222;52.458;20.914;2024-01-25T08:58:54;5.80;;;2.30;;
59416;SDS011;45222;52.458;20.914;2024-01-25T09:02:39;7.00;;;2.60;;
59416;SDS011;45222;52.458;20.914;2024-01-25T09:06:24;5.90;;;2.10;;
59416;SDS011;45222;52.458;20.914;2024-01-25T09:10:10;5.90;;;2.20;;
59416;SDS011;45222;52.458;20.914;2024-01-25T09:13:55;4.40;;;1.80;;
59416;SDS011;45222;52.458;20.914;2024-01-25T09:17:40;5.60;;;2.10;;
59416;SDS011;45222;52.458;20.914;2024-01-25T09:21:27;3.90;;;1.80;;
59416;SDS011;45222;52.458;20.914;2024-01-25T09:25:12;5.90;;;2.50;;
59416;SDS011;45222;52.458;20.914;2024-01-25T09:28:58;4.40;;;2.00;;
59416;SDS011;45222;52.458;20.914;2024-01-25T09:32:43;4.70;;;1.80;;
59416;SDS011;45222;52.458;20.914;2024-01-25T09:36:28;5.40;;;2.10;;
59416;SDS011;45222;52.458;20.914;2024-01-25T09:40:14;4.80;;;1.90;;
59416;SDS011;45222;52.458;20.914;2024-01-25T09:43:59;5.60;;;2.30;;
59416;SDS011;45222;52.458;20.914;2024-01-25T09:47:45;5.00;;;2.10;;
59416;SDS011;45222;52.458;20.914;2024-01-25T09:51:31;5.70;;;2.50;;
59416;SDS011;45222;52.458;20.914;2024-01-25T09:55:20;4.80;;;2.30;;
59416;SDS011;45222;52.458;20.914;2024-01-25T09:59:08;6.30;;;2.70;;
59416;SDS011;45222;52.458;20.914;2024-01-25T10:02:55;7.10;;;2.90;;
59416;SDS011;45222;52.458;20.914;2024-01-25T10:06:40;5.10;;;2.30;;
59416;SDS011;45222;52.458;20.914;2024-01-25T10:10:26;6.10;;;2.80;;
59416;SDS011;45222;52.458;20.914;2024-01-25T10:14:16;4.80;;;2.30;;
59416;SDS011;45222;52.458;20.914;2024-01-25T10:18:01;7.10;;;2.80;;
59416;SDS011;45222;52.458;20.914;2024-01-25T10:21:47;6.60;;;2.90;;
59416;SDS011;45222;52.458;20.914;2024-01-25T10:25:34;4.80;;;2.20;;
59416;SDS011;45222;52.458;20.914;2024-01-25T10:29:20;4.10;;;1.80;;
59416;SDS011;45222;52.458;20.914;2024-01-25T10:33:05;7.00;;;2.90;;
59416;SDS011;45222;52.458;20.914;2024-01-25T10:36:53;4.90;;;2.00;;
59416;SDS011;45222;52.458;20.914;2024-01-25T10:40:39;5.30;;;2.00;;
59416;SDS011;45222;52.458;20.914;2024-01-25T10:44:26;7.30;;;2.80;;
59416;SDS011;45222;52.458;20.914;2024-01-25T10:48:11;6.40;;;2.40;;
59416;SDS011;45222;52.458;20.914;2024-01-25T10:51:57;6.70;;;2.60;;
59416;SDS011;45222;52.458;20.914;2024-01-25T10:55:43;6.10;;;2.20;;
59416;SDS011;45222;52.458;20.914;2024-01-25T10:59:29;6.90;;;2.70;;
59416;SDS011;45222;52.458;20.914;2024-01-25T11:03:15;7.50;;;2.60;;
59416;SDS011;45222;52.458;20.914;2024-01-25T11:07:05;6.30;;;2.70;;
59416;SDS011;45222;52.458;20.914;2024-01-25T11:10:52;6.40;;;2.80;;
59416;SDS011;45222;52.458;20.914;2024-01-25T11:14:39;6.30;;;2.30;;
59416;SDS011;45222;52.458;20.914;2024-01-25T11:18:25;5.70;;;2.20;;
59416;SDS011;45222;52.458;20.914;2024-01-25T11:22:10;6.40;;;2.60;;
59416;SDS011;45222;52.458;20.914;2024-01-25T11:25:56;5.60;;;2.40;;
59416;SDS011;45222;52.458;20.914;2024-01-25T11:29:41;6.40;;;2.70;;
59416;SDS011;45222;52.458;20.914;2024-01-25T11:33:27;9.30;;;3.90;;
59416;SDS011;45222;52.458;20.914;2024-01-25T11:37:12;6.00;;;2.60;;
59416;SDS011;45222;52.458;20.914;2024-01-25T11:40:57;7.80;;;3.20;;
59416;SDS011;45222;52.458;20.914;2024-01-25T11:44:43;7.50;;;2.90;;
59416;SDS011;45222;52.458;20.914;2024-01-25T11:48:28;4.90;;;1.90;;
59416;SDS011;45222;52.458;20.914;2024-01-25T11:52:14;5.20;;;2.00;;
59416;SDS011;45222;52.458;20.914;2024-01-25T11:56:00;4.70;;;1.80;;
59416;SDS011;45222;52.458;20.914;2024-01-25T11:59:46;5.10;;;1.90;;
59416;SDS011;45222;52.458;20.914;2024-01-25T12:03:33;2.30;;;1.30;;
59416;SDS011;45222;52.458;20.914;2024-01-25T12:07:20;3.40;;;1.40;;
59416;SDS011;45222;52.458;20.914;2024-01-25T12:11:05;3.20;;;1.40;;
59416;SDS011;45222;52.458;20.914;2024-01-25T12:14:56;3.60;;;1.70;;
59416;SDS011;45222;52.458;20.914;2024-01-25T12:18:43;3.30;;;1.60;;
59416;SDS011;45222;52.458;20.914;2024-01-25T12:22:28;2.70;;;1.50;;
59416;SDS011;45222;52.458;20.914;2024-01-25T12:26:14;4.10;;;1.60;;
59416;SDS011;45222;52.458;20.914;2024-01-25T12:30:00;4.50;;;1.80;;
59416;SDS011;45222;52.458;20.914;2024-01-25T12:33:47;4.20;;;1.80;;
59416;SDS011;45222;52.458;20.914;2024-01-25T12:37:32;3.80;;;1.80;;
59416;SDS011;45222;52.458;20.914;2024-01-25T12:41:18;4.50;;;2.10;;
59416;SDS011;45222;52.458;20.914;2024-01-25T12:45:04;4.30;;;1.90;;
59416;SDS011;45222;52.458;20.914;2024-01-25T12:48:50;4.80;;;2.20;;
59416;SDS011;45222;52.458;20.914;2024-01-25T12:52:38;5.60;;;2.20;;
59416;SDS011;45222;52.458;20.914;2024-01-25T12:56:23;3.00;;;1.40;;
59416;SDS011;45222;52.458;20.914;2024-01-25T13:00:09;4.60;;;2.20;;
59416;SDS011;45222;52.458;20.914;2024-01-25T13:03:55;5.70;;;2.40;;
59416;SDS011;45222;52.458;20.914;2024-01-25T13:07:40;4.70;;;1.90;;
59416;SDS011;45222;52.458;20.914;2024-01-25T13:11:26;5.40;;;1.90;;
59416;SDS011;45222;52.458;20.914;2024-01-25T13:15:11;3.70;;;1.60;;
59416;SDS011;45222;52.458;20.914;2024-01-25T13:18:56;3.60;;;1.60;;
59416;SDS011;45222;52.458;20.914;2024-01-25T13:22:41;3.50;;;1.60;;
59416;SDS011;45222;52.458;20.914;2024-01-25T13:26:27;3.50;;;1.60;;
59416;SDS011;45222;52.458;20.914;2024-01-25T13:30:12;4.40;;;2.20;;
59416;SDS011;45222;52.458;20.914;2024-01-25T13:33:58;5.70;;;2.20;;
59416;SDS011;45222;52.458;20.914;2024-01-25T13:37:43;4.80;;;1.90;;
59416;SDS011;45222;52.458;20.914;2024-01-25T13:41:28;4.50;;;1.90;;
59416;SDS011;45222;52.458;20.914;2024-01-25T13:45:14;4.70;;;2.00;;
59416;SDS011;45222;52.458;20.914;2024-01-25T13:48:59;3.80;;;1.60;;
59416;SDS011;45222;52.458;20.914;2024-01-25T13:52:44;7.10;;;2.60;;
59416;SDS011;45222;52.458;20.914;2024-01-25T13:56:29;4.60;;;1.80;;
59416;SDS011;45222;52.458;20.914;2024-01-25T14:00:15;4.10;;;1.90;;
59416;SDS011;45222;52.458;20.914;2024-01-25T14:04:01;4.30;;;2.00;;
59416;SDS011;45222;52.458;20.914;2024-01-25T14:07:47;3.30;;;1.20;;
59416;SDS011;45222;52.458;20.914;2024-01-25T14:11:32;4.30;;;1.80;;
59416;SDS011;45222;52.458;20.914;2024-01-25T14:15:17;5.50;;;2.20;;
59416;SDS011;45222;52.458;20.914;2024-01-25T14:19:03;5.90;;;2.40;;
59416;SDS011;45222;52.458;20.914;2024-01-25T14:22:48;5.20;;;2.30;;
59416;SDS011;45222;52.458;20.914;2024-01-25T14:26:34;6.10;;;2.50;;
59416;SDS011;45222;52.458;20.914;2024-01-25T14:30:19;4.50;;;1.90;;
59416;SDS011;45222;52.458;20.914;2024-01-25T14:34:05;4.60;;;2.10;;
59416;SDS011;45222;52.458;20.914;2024-01-25T14:37:50;6.20;;;2.10;;
59416;SDS011;45222;52.458;20.914;2024-01-25T14:41:35;5.20;;;2.30;;
59416;SDS011;45222;52.458;20.914;2024-01-25T14:45:21;4.70;;;2.00;;
59416;SDS011;45222;52.458;20.914;2024-01-25T14:49:06;4.10;;;1.50;;
59416;SDS011;45222;52.458;20.914;2024-01-25T14:52:51;7.00;;;2.90;;
59416;SDS011;45222;52.458;20.914;2024-01-25T14:56:37;6.50;;;2.10;;
59416;SDS011;45222;52.458;20.914;2024-01-25T15:00:23;5.60;;;2.30;;
59416;SDS011;45222;52.458;20.914;2024-01-25T15:04:09;6.90;;;2.90;;
59416;SDS011;45222;52.458;20.914;2024-01-25T15:07:54;6.10;;;2.50;;
59416;SDS011;45222;52.458;20.914;2024-01-25T15:11:40;5.90;;;2.30;;
59416;SDS011;45222;52.458;20.914;2024-01-25T15:15:25;5.20;;;2.30;;
59416;SDS011;45222;52.458;20.914;2024-01-25T15:19:11;5.60;;;1.90;;
59416;SDS011;45222;52.458;20.914;2024-01-25T15:22:57;7.40;;;2.40;;
59416;SDS011;45222;52.458;20.914;2024-01-25T15:26:44;7.30;;;3.40;;
59416;SDS011;45222;52.458;20.914;2024-01-25T15:30:29;7.10;;;3.30;;
59416;SDS011;45222;52.458;20.914;2024-01-25T15:34:14;8.00;;;3.70;;
59416;SDS011;45222;52.458;20.914;2024-01-25T15:37:59;5.60;;;2.40;;
59416;SDS011;45222;52.458;20.914;2024-01-25T15:41:48;6.00;;;2.60;;
59416;SDS011;45222;52.458;20.914;2024-01-25T15:45:35;6.20;;;2.90;;
59416;SDS011;45222;52.458;20.914;2024-01-25T15:49:21;8.30;;;3.90;;
59416;SDS011;45222;52.458;20.914;2024-01-25T15:53:06;9.40;;;4.20;;
59416;SDS011;45222;52.458;20.914;2024-01-25T15:56:52;6.80;;;3.40;;
59416;SDS011;45222;52.458;20.914;2024-01-25T16:00:37;7.60;;;3.10;;
59416;SDS011;45222;52.458;20.914;2024-01-25T16:04:22;6.10;;;2.30;;
59416;SDS011;45222;52.458;20.914;2024-01-25T16:08:08;4.10;;;1.90;;
59416;SDS011;45222;52.458;20.914;2024-01-25T16:11:53;4.30;;;1.90;;
59416;SDS011;45222;52.458;20.914;2024-01-25T16:15:38;5.00;;;1.50;;
59416;SDS011;45222;52.458;20.914;2024-01-25T16:19:23;4.00;;;1.80;;
59416;SDS011;45222;52.458;20.914;2024-01-25T16:23:08;3.10;;;1.30;;
59416;SDS011;45222;52.458;20.914;2024-01-25T16:26:54;3.90;;;1.40;;
59416;SDS011;45222;52.458;20.914;2024-01-25T16:30:40;4.80;;;1.90;;
59416;SDS011;45222;52.458;20.914;2024-01-25T16:34:25;2.80;;;1.40;;
59416;SDS011;45222;52.458;20.914;2024-01-25T16:38:10;2.90;;;1.30;;
59416;SDS011;45222;52.458;20.914;2024-01-25T16:41:56;4.10;;;1.80;;
59416;SDS011;45222;52.458;20.914;2024-01-25T16:45:41;4.30;;;1.70;;
59416;SDS011;45222;52.458;20.914;2024-01-25T16:49:27;4.90;;;2.00;;
59416;SDS011;45222;52.458;20.914;2024-01-25T16:53:12;4.20;;;1.90;;
59416;SDS011;45222;52.458;20.914;2024-01-25T16:56:57;5.00;;;2.10;;
59416;SDS011;45222;52.458;20.914;2024-01-25T17:00:42;2.50;;;1.20;;
59416;SDS011;45222;52.458;20.914;2024-01-25T17:04:28;4.10;;;1.60;;
59416;SDS011;45222;52.458;20.914;2024-01-25T17:08:13;4.80;;;2.10;;
59416;SDS011;45222;52.458;20.914;2024-01-25T17:11:58;6.80;;;3.50;;
59416;SDS011;45222;52.458;20.914;2024-01-25T17:15:43;8.10;;;3.80;;
59416;SDS011;45222;52.458;20.914;2024-01-25T17:19:28;7.40;;;3.20;;
59416;SDS011;45222;52.458;20.914;2024-01-25T17:23:14;6.60;;;2.90;;
59416;SDS011;45222;52.458;20.914;2024-01-25T17:26:59;8.00;;;4.00;;
59416;SDS011;45222;52.458;20.914;2024-01-25T17:30:44;7.50;;;3.90;;
59416;SDS011;45222;52.458;20.914;2024-01-25T17:34:29;3.90;;;1.60;;
59416;SDS011;45222;52.458;20.914;2024-01-25T17:38:15;7.10;;;3.40;;
59416;SDS011;45222;52.458;20.914;2024-01-25T17:42:01;6.90;;;3.10;;
59416;SDS011;45222;52.458;20.914;2024-01-25T17:45:46;6.30;;;2.70;;
59416;SDS011;45222;52.458;20.914;2024-01-25T17:49:32;2.90;;;1.40;;
59416;SDS011;45222;52.458;20.914;2024-01-25T17:53:17;4.20;;;2.00;;
59416;SDS011;45222;52.458;20.914;2024-01-25T17:57:03;3.30;;;1.60;;
59416;SDS011;45222;52.458;20.914;2024-01-25T18:00:49;6.70;;;2.80;;
59416;SDS011;45222;52.458;20.914;2024-01-25T18:04:35;7.40;;;2.40;;
59416;SDS011;45222;52.458;20.914;2024-01-25T18:08:20;6.80;;;3.10;;
59416;SDS011;45222;52.458;20.914;2024-01-25T18:12:06;3.40;;;1.60;;
59416;SDS011;45222;52.458;20.914;2024-01-25T18:15:52;4.60;;;1.40;;
59416;SDS011;45222;52.458;20.914;2024-01-25T18:19:37;8.60;;;3.90;;
59416;SDS011;45222;52.458;20.914;2024-01-25T18:23:23;8.40;;;3.50;;
59416;SDS011;45222;52.458;20.914;2024-01-25T18:27:08;6.10;;;1.60;;
59416;SDS011;45222;52.458;20.914;2024-01-25T18:30:53;5.10;;;2.00;;
59416;SDS011;45222;52.458;20.914;2024-01-25T18:34:40;7.70;;;3.40;;
59416;SDS011;45222;52.458;20.914;2024-01-25T18:38:25;4.80;;;1.80;;
59416;SDS011;45222;52.458;20.914;2024-01-25T18:42:11;5.60;;;2.20;;
59416;SDS011;45222;52.458;20.914;2024-01-25T18:45:56;7.70;;;3.70;;
59416;SDS011;45222;52.458;20.914;2024-01-25T18:53:50;4.20;;;2.20;;
59416;SDS011;45222;52.458;20.914;2024-01-25T18:57:37;8.40;;;3.90;;
59416;SDS011;45222;52.458;20.914;2024-01-25T19:01:23;6.10;;;2.40;;
59416;SDS011;45222;52.458;20.914;2024-01-25T19:05:10;13.30;;;6.00;;
59416;SDS011;45222;52.458;20.914;2024-01-25T19:08:58;14.40;;;7.30;;
59416;SDS011;45222;52.458;20.914;2024-01-25T19:12:44;10.00;;;3.10;;
59416;SDS011;45222;52.458;20.914;2024-01-25T19:16:29;18.20;;;5.00;;
59416;SDS011;45222;52.458;20.914;2024-01-25T19:20:14;12.00;;;5.60;;
59416;SDS011;45222;52.458;20.914;2024-01-25T19:24:00;14.20;;;7.50;;
59416;SDS011;45222;52.458;20.914;2024-01-25T19:27:45;12.00;;;3.50;;
59416;SDS011;45222;52.458;20.914;2024-01-25T19:31:31;15.20;;;8.30;;
59416;SDS011;45222;52.458;20.914;2024-01-25T19:35:16;11.50;;;4.70;;
59416;SDS011;45222;52.458;20.914;2024-01-25T19:39:02;7.20;;;3.00;;
59416;SDS011;45222;52.458;20.914;2024-01-25T19:42:48;8.80;;;3.80;;
59416;SDS011;45222;52.458;20.914;2024-01-25T19:46:34;6.90;;;2.60;;
59416;SDS011;45222;52.458;20.914;2024-01-25T19:50:19;6.60;;;3.50;;
59416;SDS011;45222;52.458;20.914;2024-01-25T19:54:04;5.90;;;3.00;;
59416;SDS011;45222;52.458;20.914;2024-01-25T19:57:50;7.10;;;3.30;;
59416;SDS011;45222;52.458;20.914;2024-01-25T20:01:37;9.50;;;4.80;;
59416;SDS011;45222;52.458;20.914;2024-01-25T20:05:24;8.20;;;4.20;;
59416;SDS011;45222;52.458;20.914;2024-01-25T20:09:10;9.30;;;4.80;;
59416;SDS011;45222;52.458;20.914;2024-01-25T20:12:55;7.90;;;4.30;;
59416;SDS011;45222;52.458;20.914;2024-01-25T20:16:40;9.50;;;2.80;;
59416;SDS011;45222;52.458;20.914;2024-01-25T20:20:26;10.70;;;3.90;;
59416;SDS011;45222;52.458;20.914;2024-01-25T20:24:11;8.00;;;4.40;;
59416;SDS011;45222;52.458;20.914;2024-01-25T20:27:56;8.10;;;2.50;;
59416;SDS011;45222;52.458;20.914;2024-01-25T20:31:42;9.00;;;5.30;;
59416;SDS011;45222;52.458;20.914;2024-01-25T20:35:27;9.40;;;5.50;;
59416;SDS011;45222;52.458;20.914;2024-01-25T20:39:12;8.90;;;4.50;;
59416;SDS011;45222;52.458;20.914;2024-01-25T20:42:57;6.30;;;3.30;;
59416;SDS011;45222;52.458;20.914;2024-01-25T20:46:43;7.80;;;3.00;;
59416;SDS011;45222;52.458;20.914;2024-01-25T20:50:31;6.90;;;3.30;;
59416;SDS011;45222;52.458;20.914;2024-01-25T20:54:16;6.50;;;3.60;;
59416;SDS011;45222;52.458;20.914;2024-01-25T20:58:02;7.60;;;3.70;;
59416;SDS011;45222;52.458;20.914;2024-01-25T21:01:48;8.30;;;4.30;;
59416;SDS011;45222;52.458;20.914;2024-01-25T21:05:34;7.90;;;4.00;;
59416;SDS011;45222;52.458;20.914;2024-01-25T21:09:21;6.70;;;3.30;;
59416;SDS011;45222;52.458;20.914;2024-01-25T21:13:08;7.80;;;4.10;;
59416;SDS011;45222;52.458;20.914;2024-01-25T21:16:54;6.10;;;3.00;;
59416;SDS011;45222;52.458;20.914;2024-01-25T21:20:39;8.00;;;3.10;;
59416;SDS011;45222;52.458;20.914;2024-01-25T21:24:24;9.00;;;4.60;;
59416;SDS011;45222;52.458;20.914;2024-01-25T21:28:10;8.50;;;3.20;;
59416;SDS011;45222;52.458;20.914;2024-01-25T21:31:55;10.70;;;5.00;;
59416;SDS011;45222;52.458;20.914;2024-01-25T21:35:40;9.00;;;5.10;;
59416;SDS011;45222;52.458;20.914;2024-01-25T21:39:26;9.30;;;5.10;;
59416;SDS011;45222;52.458;20.914;2024-01-25T21:43:11;7.30;;;4.00;;
59416;SDS011;45222;52.458;20.914;2024-01-25T21:46:56;6.10;;;3.60;;
59416;SDS011;45222;52.458;20.914;2024-01-25T21:50:42;3.50;;;1.80;;
59416;SDS011;45222;52.458;20.914;2024-01-25T21:54:28;7.90;;;4.20;;
59416;SDS011;45222;52.458;20.914;2024-01-25T21:58:13;7.40;;;4.30;;
59416;SDS011;45222;52.458;20.914;2024-01-25T22:01:59;9.70;;;5.20;;
59416;SDS011;45222;52.458;20.914;2024-01-25T22:05:44;8.30;;;4.30;;
59416;SDS011;45222;52.458;20.914;2024-01-25T22:09:29;7.80;;;3.00;;
59416;SDS011;45222;52.458;20.914;2024-01-25T22:13:14;13.50;;;7.50;;
59416;SDS011;45222;52.458;20.914;2024-01-25T22:17:00;7.90;;;4.10;;
59416;SDS011;45222;52.458;20.914;2024-01-25T22:20:46;7.70;;;4.00;;